sensor_id;sensor_type;location;lat;lon;timestamp;P1;durP1;ratioP1;P2;durP2;ratioP2
47431;SDS011;33183;52.290;6.144;2022-12-20T00:01:00;2.97;;;1.40;;
47431;SDS011;33183;52.290;6.144;2022-12-20T00:03:25;1.40;;;1.20;;
47431;SDS011;33183;52.290;6.144;2022-12-20T00:05:50;1.90;;;1.48;;
47431;SDS011;33183;52.290;6.144;2022-12-20T00:08:16;1.70;;;1.30;;
47431;SDS011;33183;52.290;6.144;2022-12-20T00:10:42;2.30;;;1.50;;
47431;SDS011;33183;52.290;6.144;2022-12-20T00:13:09;1.95;;;1.30;;
47431;SDS011;33183;52.290;6.144;2022-12-20T00:15:35;2.30;;;1.75;;
47431;SDS011;33183;52.290;6.144;2022-12-20T00:18:00;1.40;;;1.30;;
47431;SDS011;33183;52.290;6.144;2022-12-20T00:20:26;1.88;;;1.45;;
47431;SDS011;33183;52.290;6.144;2022-12-20T00:22:52;1.52;;;1.30;;
47431;SDS011;33183;52.290;6.144;2022-12-20T00:25:17;1.70;;;1.50;;
47431;SDS011;33183;52.290;6.144;2022-12-20T00:27:44;1.40;;;1.30;;
47431;SDS011;33183;52.290;6.144;2022-12-20T00:30:10;1.60;;;1.33;;
47431;SDS011;33183;52.290;6.144;2022-12-20T00:32:36;1.95;;;1.45;;
47431;SDS011;33183;52.290;6.144;2022-12-20T00:35:01;2.25;;;1.30;;
47431;SDS011;33183;52.290;6.144;2022-12-20T00:37:26;1.63;;;1.35;;
47431;SDS011;33183;52.290;6.144;2022-12-20T00:39:52;1.83;;;1.40;;
47431;SDS011;33183;52.290;6.144;2022-12-20T00:42:17;1.88;;;1.42;;
47431;SDS011;33183;52.290;6.144;2022-12-20T00:44:42;1.90;;;1.60;;
47431;SDS011;33183;52.290;6.144;2022-12-20T00:47:07;1.25;;;1.15;;
47431;SDS011;33183;52.290;6.144;2022-12-20T00:49:33;1.70;;;1.40;;
47431;SDS011;33183;52.290;6.144;2022-12-20T00:51:58;1.63;;;1.27;;
47431;SDS011;33183;52.290;6.144;2022-12-20T00:54:23;1.83;;;1.20;;
47431;SDS011;33183;52.290;6.144;2022-12-20T00:56:49;1.33;;;1.20;;
47431;SDS011;33183;52.290;6.144;2022-12-20T00:59:14;1.25;;;1.15;;
47431;SDS011;33183;52.290;6.144;2022-12-20T01:01:39;2.00;;;1.60;;
47431;SDS011;33183;52.290;6.144;2022-12-20T01:04:05;2.78;;;1.30;;
47431;SDS011;33183;52.290;6.144;2022-12-20T01:06:30;1.65;;;1.40;;
47431;SDS011;33183;52.290;6.144;2022-12-20T01:08:56;1.92;;;1.40;;
47431;SDS011;33183;52.290;6.144;2022-12-20T01:11:22;1.35;;;1.25;;
47431;SDS011;33183;52.290;6.144;2022-12-20T01:13:52;1.52;;;1.38;;
47431;SDS011;33183;52.290;6.144;2022-12-20T01:16:21;2.75;;;1.40;;
47431;SDS011;33183;52.290;6.144;2022-12-20T01:18:47;1.55;;;1.20;;
47431;SDS011;33183;52.290;6.144;2022-12-20T01:21:14;1.83;;;1.30;;
47431;SDS011;33183;52.290;6.144;2022-12-20T01:23:40;1.20;;;1.10;;
47431;SDS011;33183;52.290;6.144;2022-12-20T01:26:07;1.80;;;1.40;;
47431;SDS011;33183;52.290;6.144;2022-12-20T01:28:35;1.50;;;1.27;;
47431;SDS011;33183;52.290;6.144;2022-12-20T01:31:01;1.10;;;1.00;;
47431;SDS011;33183;52.290;6.144;2022-12-20T01:33:26;1.52;;;1.30;;
47431;SDS011;33183;52.290;6.144;2022-12-20T01:35:55;2.03;;;1.65;;
47431;SDS011;33183;52.290;6.144;2022-12-20T01:38:22;3.08;;;1.38;;
47431;SDS011;33183;52.290;6.144;2022-12-20T01:40:47;1.67;;;1.20;;
47431;SDS011;33183;52.290;6.144;2022-12-20T01:43:13;2.08;;;1.30;;
47431;SDS011;33183;52.290;6.144;2022-12-20T01:45:39;1.65;;;1.10;;
47431;SDS011;33183;52.290;6.144;2022-12-20T01:48:04;1.50;;;1.40;;
47431;SDS011;33183;52.290;6.144;2022-12-20T01:50:30;1.10;;;1.00;;
47431;SDS011;33183;52.290;6.144;2022-12-20T01:52:56;1.33;;;1.13;;
47431;SDS011;33183;52.290;6.144;2022-12-20T01:55:24;1.88;;;1.35;;
47431;SDS011;33183;52.290;6.144;2022-12-20T01:58:01;1.50;;;1.25;;
47431;SDS011;33183;52.290;6.144;2022-12-20T02:00:28;1.50;;;1.35;;
47431;SDS011;33183;52.290;6.144;2022-12-20T02:02:54;1.70;;;1.23;;
47431;SDS011;33183;52.290;6.144;2022-12-20T02:05:20;1.23;;;1.13;;
47431;SDS011;33183;52.290;6.144;2022-12-20T02:07:47;1.63;;;1.20;;
47431;SDS011;33183;52.290;6.144;2022-12-20T02:10:16;1.65;;;1.33;;
47431;SDS011;33183;52.290;6.144;2022-12-20T02:12:44;1.63;;;1.30;;
47431;SDS011;33183;52.290;6.144;2022-12-20T02:23:29;1.45;;;1.23;;
47431;SDS011;33183;52.290;6.144;2022-12-20T02:29:17;2.15;;;1.40;;
47431;SDS011;33183;52.290;6.144;2022-12-20T02:31:49;1.42;;;1.33;;
47431;SDS011;33183;52.290;6.144;2022-12-20T02:34:22;1.52;;;1.10;;
47431;SDS011;33183;52.290;6.144;2022-12-20T02:39:16;1.30;;;1.10;;
47431;SDS011;33183;52.290;6.144;2022-12-20T02:41:59;1.20;;;1.10;;
47431;SDS011;33183;52.290;6.144;2022-12-20T02:44:26;2.95;;;1.40;;
47431;SDS011;33183;52.290;6.144;2022-12-20T02:47:12;1.20;;;1.02;;
47431;SDS011;33183;52.290;6.144;2022-12-20T02:49:42;2.20;;;1.23;;
47431;SDS011;33183;52.290;6.144;2022-12-20T02:52:09;2.38;;;1.42;;
47431;SDS011;33183;52.290;6.144;2022-12-20T02:54:36;1.63;;;1.20;;
47431;SDS011;33183;52.290;6.144;2022-12-20T03:02:14;2.70;;;1.30;;
47431;SDS011;33183;52.290;6.144;2022-12-20T03:04:39;1.58;;;1.25;;
47431;SDS011;33183;52.290;6.144;2022-12-20T03:07:06;1.83;;;1.20;;
47431;SDS011;33183;52.290;6.144;2022-12-20T03:09:34;1.20;;;1.10;;
47431;SDS011;33183;52.290;6.144;2022-12-20T03:12:01;1.20;;;1.10;;
47431;SDS011;33183;52.290;6.144;2022-12-20T03:14:26;1.40;;;1.13;;
47431;SDS011;33183;52.290;6.144;2022-12-20T03:16:52;1.65;;;1.15;;
47431;SDS011;33183;52.290;6.144;2022-12-20T03:19:17;1.10;;;1.00;;
47431;SDS011;33183;52.290;6.144;2022-12-20T03:21:43;1.20;;;1.00;;
47431;SDS011;33183;52.290;6.144;2022-12-20T03:24:08;1.25;;;1.15;;
47431;SDS011;33183;52.290;6.144;2022-12-20T03:26:35;1.30;;;1.20;;
47431;SDS011;33183;52.290;6.144;2022-12-20T03:29:01;1.58;;;1.27;;
47431;SDS011;33183;52.290;6.144;2022-12-20T03:31:26;2.67;;;1.45;;
47431;SDS011;33183;52.290;6.144;2022-12-20T03:33:51;1.38;;;1.27;;
47431;SDS011;33183;52.290;6.144;2022-12-20T03:36:17;1.25;;;1.13;;
47431;SDS011;33183;52.290;6.144;2022-12-20T03:38:47;1.40;;;1.30;;
47431;SDS011;33183;52.290;6.144;2022-12-20T03:41:12;1.48;;;1.10;;
47431;SDS011;33183;52.290;6.144;2022-12-20T03:43:38;1.30;;;1.10;;
47431;SDS011;33183;52.290;6.144;2022-12-20T03:46:03;2.30;;;1.20;;
47431;SDS011;33183;52.290;6.144;2022-12-20T03:48:28;1.10;;;1.00;;
47431;SDS011;33183;52.290;6.144;2022-12-20T03:50:53;1.30;;;1.20;;
47431;SDS011;33183;52.290;6.144;2022-12-20T03:53:19;1.20;;;1.10;;
47431;SDS011;33183;52.290;6.144;2022-12-20T03:55:44;1.52;;;1.13;;
47431;SDS011;33183;52.290;6.144;2022-12-20T03:58:09;1.20;;;1.10;;
47431;SDS011;33183;52.290;6.144;2022-12-20T04:00:35;1.10;;;1.00;;
47431;SDS011;33183;52.290;6.144;2022-12-20T04:03:00;1.77;;;1.20;;
47431;SDS011;33183;52.290;6.144;2022-12-20T04:05:25;1.20;;;1.02;;
47431;SDS011;33183;52.290;6.144;2022-12-20T04:07:51;1.05;;;0.95;;
47431;SDS011;33183;52.290;6.144;2022-12-20T04:10:16;1.20;;;1.10;;
47431;SDS011;33183;52.290;6.144;2022-12-20T04:12:41;1.15;;;1.00;;
47431;SDS011;33183;52.290;6.144;2022-12-20T04:15:07;1.05;;;0.95;;
47431;SDS011;33183;52.290;6.144;2022-12-20T04:17:32;1.45;;;1.10;;
47431;SDS011;33183;52.290;6.144;2022-12-20T04:19:57;2.15;;;1.23;;
47431;SDS011;33183;52.290;6.144;2022-12-20T04:22:23;1.20;;;1.00;;
47431;SDS011;33183;52.290;6.144;2022-12-20T04:24:48;1.85;;;1.27;;
47431;SDS011;33183;52.290;6.144;2022-12-20T04:27:13;1.80;;;1.45;;
47431;SDS011;33183;52.290;6.144;2022-12-20T04:29:39;2.35;;;1.23;;
47431;SDS011;33183;52.290;6.144;2022-12-20T04:32:04;1.20;;;1.10;;
47431;SDS011;33183;52.290;6.144;2022-12-20T04:34:29;1.38;;;1.20;;
47431;SDS011;33183;52.290;6.144;2022-12-20T04:36:55;1.65;;;1.20;;
47431;SDS011;33183;52.290;6.144;2022-12-20T04:39:20;1.20;;;1.10;;
47431;SDS011;33183;52.290;6.144;2022-12-20T04:41:45;1.48;;;1.10;;
47431;SDS011;33183;52.290;6.144;2022-12-20T04:44:10;2.10;;;1.40;;
47431;SDS011;33183;52.290;6.144;2022-12-20T04:46:36;1.13;;;1.08;;
47431;SDS011;33183;52.290;6.144;2022-12-20T04:49:01;1.38;;;1.20;;
47431;SDS011;33183;52.290;6.144;2022-12-20T04:51:27;1.25;;;0.90;;
47431;SDS011;33183;52.290;6.144;2022-12-20T04:53:52;1.17;;;1.08;;
47431;SDS011;33183;52.290;6.144;2022-12-20T04:56:25;1.50;;;1.02;;
47431;SDS011;33183;52.290;6.144;2022-12-20T04:58:52;1.33;;;1.00;;
47431;SDS011;33183;52.290;6.144;2022-12-20T05:01:18;1.05;;;1.00;;
47431;SDS011;33183;52.290;6.144;2022-12-20T05:03:43;1.50;;;1.20;;
47431;SDS011;33183;52.290;6.144;2022-12-20T05:06:09;1.27;;;1.17;;
47431;SDS011;33183;52.290;6.144;2022-12-20T05:08:35;1.10;;;1.00;;
47431;SDS011;33183;52.290;6.144;2022-12-20T05:11:00;1.08;;;0.98;;
47431;SDS011;33183;52.290;6.144;2022-12-20T05:13:26;1.23;;;1.02;;
47431;SDS011;33183;52.290;6.144;2022-12-20T05:15:51;1.27;;;1.17;;
47431;SDS011;33183;52.290;6.144;2022-12-20T05:18:17;1.55;;;1.45;;
47431;SDS011;33183;52.290;6.144;2022-12-20T05:20:43;1.38;;;1.27;;
47431;SDS011;33183;52.290;6.144;2022-12-20T05:23:09;0.95;;;0.95;;
47431;SDS011;33183;52.290;6.144;2022-12-20T05:25:53;2.08;;;1.30;;
47431;SDS011;33183;52.290;6.144;2022-12-20T05:28:27;1.38;;;1.00;;
47431;SDS011;33183;52.290;6.144;2022-12-20T05:30:53;1.48;;;1.17;;
47431;SDS011;33183;52.290;6.144;2022-12-20T05:33:18;1.13;;;1.02;;
47431;SDS011;33183;52.290;6.144;2022-12-20T05:35:43;1.20;;;1.10;;
47431;SDS011;33183;52.290;6.144;2022-12-20T05:38:09;1.23;;;1.00;;
47431;SDS011;33183;52.290;6.144;2022-12-20T05:40:34;1.48;;;1.02;;
47431;SDS011;33183;52.290;6.144;2022-12-20T05:42:59;1.20;;;1.00;;
47431;SDS011;33183;52.290;6.144;2022-12-20T05:45:25;1.35;;;1.00;;
47431;SDS011;33183;52.290;6.144;2022-12-20T05:47:51;1.20;;;1.08;;
47431;SDS011;33183;52.290;6.144;2022-12-20T05:50:16;1.55;;;1.00;;
47431;SDS011;33183;52.290;6.144;2022-12-20T05:52:41;1.10;;;1.00;;
47431;SDS011;33183;52.290;6.144;2022-12-20T05:55:07;1.13;;;0.93;;
47431;SDS011;33183;52.290;6.144;2022-12-20T05:57:32;1.52;;;1.00;;
47431;SDS011;33183;52.290;6.144;2022-12-20T05:59:58;1.65;;;1.10;;
47431;SDS011;33183;52.290;6.144;2022-12-20T06:02:23;1.60;;;1.50;;
47431;SDS011;33183;52.290;6.144;2022-12-20T06:04:48;1.27;;;1.00;;
47431;SDS011;33183;52.290;6.144;2022-12-20T06:07:13;2.60;;;1.17;;
47431;SDS011;33183;52.290;6.144;2022-12-20T06:09:39;1.48;;;1.10;;
47431;SDS011;33183;52.290;6.144;2022-12-20T06:12:04;1.27;;;1.13;;
47431;SDS011;33183;52.290;6.144;2022-12-20T06:14:29;2.15;;;1.25;;
47431;SDS011;33183;52.290;6.144;2022-12-20T06:16:55;1.20;;;1.00;;
47431;SDS011;33183;52.290;6.144;2022-12-20T06:19:20;1.50;;;0.90;;
47431;SDS011;33183;52.290;6.144;2022-12-20T06:21:45;1.35;;;1.20;;
47431;SDS011;33183;52.290;6.144;2022-12-20T06:24:11;1.60;;;1.17;;
47431;SDS011;33183;52.290;6.144;2022-12-20T06:26:36;1.23;;;1.10;;
47431;SDS011;33183;52.290;6.144;2022-12-20T06:29:05;1.42;;;1.00;;
47431;SDS011;33183;52.290;6.144;2022-12-20T06:31:33;1.60;;;1.00;;
47431;SDS011;33183;52.290;6.144;2022-12-20T06:33:58;1.20;;;1.10;;
47431;SDS011;33183;52.290;6.144;2022-12-20T06:36:24;1.30;;;1.00;;
47431;SDS011;33183;52.290;6.144;2022-12-20T06:38:49;1.52;;;0.90;;
47431;SDS011;33183;52.290;6.144;2022-12-20T06:41:15;1.10;;;1.00;;
47431;SDS011;33183;52.290;6.144;2022-12-20T06:43:40;2.13;;;1.33;;
47431;SDS011;33183;52.290;6.144;2022-12-20T06:46:05;1.27;;;1.02;;
47431;SDS011;33183;52.290;6.144;2022-12-20T06:48:31;2.72;;;1.05;;
47431;SDS011;33183;52.290;6.144;2022-12-20T06:50:56;1.10;;;1.00;;
47431;SDS011;33183;52.290;6.144;2022-12-20T06:53:22;1.30;;;0.90;;
47431;SDS011;33183;52.290;6.144;2022-12-20T06:55:47;1.45;;;1.10;;
47431;SDS011;33183;52.290;6.144;2022-12-20T06:58:14;1.63;;;1.02;;
47431;SDS011;33183;52.290;6.144;2022-12-20T07:00:40;0.90;;;0.90;;
47431;SDS011;33183;52.290;6.144;2022-12-20T07:03:05;2.00;;;1.13;;
47431;SDS011;33183;52.290;6.144;2022-12-20T07:05:30;1.10;;;1.00;;
47431;SDS011;33183;52.290;6.144;2022-12-20T07:07:56;1.15;;;0.90;;
47431;SDS011;33183;52.290;6.144;2022-12-20T07:10:21;1.08;;;0.90;;
47431;SDS011;33183;52.290;6.144;2022-12-20T07:12:46;1.05;;;0.90;;
47431;SDS011;33183;52.290;6.144;2022-12-20T07:15:12;1.63;;;1.13;;
47431;SDS011;33183;52.290;6.144;2022-12-20T07:17:37;1.13;;;0.90;;
47431;SDS011;33183;52.290;6.144;2022-12-20T07:20:02;1.33;;;1.20;;
47431;SDS011;33183;52.290;6.144;2022-12-20T07:22:28;1.10;;;0.90;;
47431;SDS011;33183;52.290;6.144;2022-12-20T07:24:53;3.55;;;1.77;;
47431;SDS011;33183;52.290;6.144;2022-12-20T07:27:20;1.73;;;1.27;;
47431;SDS011;33183;52.290;6.144;2022-12-20T07:29:45;1.02;;;0.93;;
47431;SDS011;33183;52.290;6.144;2022-12-20T07:32:10;11.85;;;2.17;;
47431;SDS011;33183;52.290;6.144;2022-12-20T07:34:38;2.83;;;1.20;;
47431;SDS011;33183;52.290;6.144;2022-12-20T07:37:03;0.93;;;0.88;;
47431;SDS011;33183;52.290;6.144;2022-12-20T07:39:29;1.63;;;1.23;;
47431;SDS011;33183;52.290;6.144;2022-12-20T07:41:54;1.05;;;0.98;;
47431;SDS011;33183;52.290;6.144;2022-12-20T07:44:20;3.53;;;1.00;;
47431;SDS011;33183;52.290;6.144;2022-12-20T07:46:46;1.60;;;1.00;;
47431;SDS011;33183;52.290;6.144;2022-12-20T07:49:11;1.45;;;0.90;;
47431;SDS011;33183;52.290;6.144;2022-12-20T07:51:39;1.75;;;1.10;;
47431;SDS011;33183;52.290;6.144;2022-12-20T07:54:11;2.80;;;1.10;;
47431;SDS011;33183;52.290;6.144;2022-12-20T07:56:39;1.60;;;1.08;;
47431;SDS011;33183;52.290;6.144;2022-12-20T08:01:34;2.35;;;1.05;;
47431;SDS011;33183;52.290;6.144;2022-12-20T08:04:01;1.70;;;1.00;;
47431;SDS011;33183;52.290;6.144;2022-12-20T08:06:30;1.85;;;1.20;;
47431;SDS011;33183;52.290;6.144;2022-12-20T08:08:56;2.40;;;1.10;;
47431;SDS011;33183;52.290;6.144;2022-12-20T08:11:23;1.05;;;0.95;;
47431;SDS011;33183;52.290;6.144;2022-12-20T08:13:49;1.77;;;1.02;;
47431;SDS011;33183;52.290;6.144;2022-12-20T08:16:16;1.23;;;0.90;;
47431;SDS011;33183;52.290;6.144;2022-12-20T08:18:41;1.85;;;1.02;;
47431;SDS011;33183;52.290;6.144;2022-12-20T08:21:06;2.78;;;1.10;;
47431;SDS011;33183;52.290;6.144;2022-12-20T08:23:32;2.00;;;0.80;;
47431;SDS011;33183;52.290;6.144;2022-12-20T08:26:01;1.95;;;1.10;;
47431;SDS011;33183;52.290;6.144;2022-12-20T08:28:26;1.23;;;1.13;;
47431;SDS011;33183;52.290;6.144;2022-12-20T08:30:51;1.33;;;1.10;;
47431;SDS011;33183;52.290;6.144;2022-12-20T08:33:17;2.38;;;1.10;;
47431;SDS011;33183;52.290;6.144;2022-12-20T08:35:43;2.10;;;0.88;;
47431;SDS011;33183;52.290;6.144;2022-12-20T08:38:09;1.67;;;1.25;;
47431;SDS011;33183;52.290;6.144;2022-12-20T08:40:34;1.50;;;1.10;;
47431;SDS011;33183;52.290;6.144;2022-12-20T08:42:59;1.70;;;1.30;;
47431;SDS011;33183;52.290;6.144;2022-12-20T08:45:25;1.27;;;1.10;;
47431;SDS011;33183;52.290;6.144;2022-12-20T08:47:50;2.03;;;0.95;;
47431;SDS011;33183;52.290;6.144;2022-12-20T08:50:15;1.30;;;1.08;;
47431;SDS011;33183;52.290;6.144;2022-12-20T08:52:41;1.60;;;0.90;;
47431;SDS011;33183;52.290;6.144;2022-12-20T08:55:06;1.52;;;1.30;;
47431;SDS011;33183;52.290;6.144;2022-12-20T08:57:32;1.05;;;0.90;;
47431;SDS011;33183;52.290;6.144;2022-12-20T08:59:57;1.55;;;1.30;;
47431;SDS011;33183;52.290;6.144;2022-12-20T09:02:23;1.55;;;1.10;;
47431;SDS011;33183;52.290;6.144;2022-12-20T09:04:48;1.15;;;0.93;;
47431;SDS011;33183;52.290;6.144;2022-12-20T09:07:13;1.52;;;1.15;;
47431;SDS011;33183;52.290;6.144;2022-12-20T09:09:39;2.00;;;1.08;;
47431;SDS011;33183;52.290;6.144;2022-12-20T09:12:04;1.23;;;0.95;;
47431;SDS011;33183;52.290;6.144;2022-12-20T09:14:31;1.60;;;1.02;;
47431;SDS011;33183;52.290;6.144;2022-12-20T09:16:57;1.40;;;1.00;;
47431;SDS011;33183;52.290;6.144;2022-12-20T09:19:22;1.30;;;1.20;;
47431;SDS011;33183;52.290;6.144;2022-12-20T09:21:47;1.75;;;1.00;;
47431;SDS011;33183;52.290;6.144;2022-12-20T09:24:13;1.65;;;1.20;;
47431;SDS011;33183;52.290;6.144;2022-12-20T09:26:38;1.15;;;0.98;;
47431;SDS011;33183;52.290;6.144;2022-12-20T09:29:04;2.20;;;1.40;;
47431;SDS011;33183;52.290;6.144;2022-12-20T09:31:30;1.52;;;1.08;;
47431;SDS011;33183;52.290;6.144;2022-12-20T09:33:56;1.50;;;1.00;;
47431;SDS011;33183;52.290;6.144;2022-12-20T09:36:22;1.95;;;1.08;;
47431;SDS011;33183;52.290;6.144;2022-12-20T09:38:49;1.20;;;0.90;;
47431;SDS011;33183;52.290;6.144;2022-12-20T09:43:46;1.17;;;1.02;;
47431;SDS011;33183;52.290;6.144;2022-12-20T09:46:12;2.90;;;1.10;;
47431;SDS011;33183;52.290;6.144;2022-12-20T09:48:39;1.52;;;1.20;;
47431;SDS011;33183;52.290;6.144;2022-12-20T09:56:57;1.17;;;1.00;;
47431;SDS011;33183;52.290;6.144;2022-12-20T09:59:23;1.52;;;1.10;;
47431;SDS011;33183;52.290;6.144;2022-12-20T10:01:49;1.35;;;0.93;;
47431;SDS011;33183;52.290;6.144;2022-12-20T10:04:25;0.93;;;0.82;;
47431;SDS011;33183;52.290;6.144;2022-12-20T10:15:11;0.85;;;0.80;;
47431;SDS011;33183;52.290;6.144;2022-12-20T10:20:29;1.33;;;0.98;;
47431;SDS011;33183;52.290;6.144;2022-12-20T10:25:49;1.55;;;1.15;;
47431;SDS011;33183;52.290;6.144;2022-12-20T10:28:15;1.08;;;0.77;;
47431;SDS011;33183;52.290;6.144;2022-12-20T10:30:42;1.60;;;1.38;;
47431;SDS011;33183;52.290;6.144;2022-12-20T10:33:15;2.13;;;0.98;;
47431;SDS011;33183;52.290;6.144;2022-12-20T10:35:43;1.20;;;1.00;;
47431;SDS011;33183;52.290;6.144;2022-12-20T10:38:10;1.00;;;0.90;;
47431;SDS011;33183;52.290;6.144;2022-12-20T10:40:38;1.95;;;1.45;;
47431;SDS011;33183;52.290;6.144;2022-12-20T10:43:05;1.90;;;1.52;;
47431;SDS011;33183;52.290;6.144;2022-12-20T10:45:39;1.48;;;1.00;;
47431;SDS011;33183;52.290;6.144;2022-12-20T10:48:24;1.20;;;1.10;;
47431;SDS011;33183;52.290;6.144;2022-12-20T10:50:59;1.48;;;1.20;;
47431;SDS011;33183;52.290;6.144;2022-12-20T10:53:27;1.60;;;1.00;;
47431;SDS011;33183;52.290;6.144;2022-12-20T10:56:03;0.75;;;0.75;;
47431;SDS011;33183;52.290;6.144;2022-12-20T10:58:34;1.55;;;1.23;;
47431;SDS011;33183;52.290;6.144;2022-12-20T11:01:03;1.73;;;1.08;;
47431;SDS011;33183;52.290;6.144;2022-12-20T11:03:49;1.25;;;0.80;;
47431;SDS011;33183;52.290;6.144;2022-12-20T11:06:21;1.35;;;1.25;;
47431;SDS011;33183;52.290;6.144;2022-12-20T11:08:50;1.48;;;1.02;;
47431;SDS011;33183;52.290;6.144;2022-12-20T11:11:17;1.58;;;0.98;;
47431;SDS011;33183;52.290;6.144;2022-12-20T11:13:44;1.98;;;1.10;;
47431;SDS011;33183;52.290;6.144;2022-12-20T11:24:43;1.67;;;1.30;;
47431;SDS011;33183;52.290;6.144;2022-12-20T11:37:45;0.93;;;0.85;;
47431;SDS011;33183;52.290;6.144;2022-12-20T11:40:21;1.92;;;1.00;;
47431;SDS011;33183;52.290;6.144;2022-12-20T11:45:27;1.83;;;1.02;;
47431;SDS011;33183;52.290;6.144;2022-12-20T11:53:39;2.15;;;1.20;;
47431;SDS011;33183;52.290;6.144;2022-12-20T11:56:18;1.55;;;0.90;;
47431;SDS011;33183;52.290;6.144;2022-12-20T11:58:48;1.63;;;0.70;;
47431;SDS011;33183;52.290;6.144;2022-12-20T12:01:26;1.13;;;0.90;;
47431;SDS011;33183;52.290;6.144;2022-12-20T12:06:48;1.55;;;0.98;;
47431;SDS011;33183;52.290;6.144;2022-12-20T12:09:24;0.85;;;0.82;;
47431;SDS011;33183;52.290;6.144;2022-12-20T12:12:14;1.67;;;1.00;;
47431;SDS011;33183;52.290;6.144;2022-12-20T12:14:48;0.73;;;0.65;;
47431;SDS011;33183;52.290;6.144;2022-12-20T12:17:22;1.35;;;0.95;;
47431;SDS011;33183;52.290;6.144;2022-12-20T12:19:55;2.35;;;1.00;;
47431;SDS011;33183;52.290;6.144;2022-12-20T12:22:23;1.55;;;1.05;;
47431;SDS011;33183;52.290;6.144;2022-12-20T12:24:53;2.20;;;0.98;;
47431;SDS011;33183;52.290;6.144;2022-12-20T12:27:25;1.00;;;0.90;;
47431;SDS011;33183;52.290;6.144;2022-12-20T12:29:51;0.80;;;0.80;;
47431;SDS011;33183;52.290;6.144;2022-12-20T12:38:27;1.20;;;1.00;;
47431;SDS011;33183;52.290;6.144;2022-12-20T12:43:51;3.65;;;1.00;;
47431;SDS011;33183;52.290;6.144;2022-12-20T12:49:01;2.15;;;1.20;;
47431;SDS011;33183;52.290;6.144;2022-12-20T12:51:36;1.85;;;0.85;;
47431;SDS011;33183;52.290;6.144;2022-12-20T12:57:00;1.60;;;0.82;;
47431;SDS011;33183;52.290;6.144;2022-12-20T13:09:49;0.98;;;0.88;;
47431;SDS011;33183;52.290;6.144;2022-12-20T13:20:25;1.88;;;1.48;;
47431;SDS011;33183;52.290;6.144;2022-12-20T13:23:36;0.90;;;0.85;;
47431;SDS011;33183;52.290;6.144;2022-12-20T13:25:44;4.25;;;0.73;;
47431;SDS011;33183;52.290;6.144;2022-12-20T13:33:44;1.45;;;1.00;;
47431;SDS011;33183;52.290;6.144;2022-12-20T13:43:47;2.20;;;0.80;;
47431;SDS011;33183;52.290;6.144;2022-12-20T13:46:18;1.80;;;0.90;;
47431;SDS011;33183;52.290;6.144;2022-12-20T13:51:19;1.75;;;1.00;;
47431;SDS011;33183;52.290;6.144;2022-12-20T13:53:59;4.95;;;1.00;;
47431;SDS011;33183;52.290;6.144;2022-12-20T13:58:51;1.10;;;0.73;;
47431;SDS011;33183;52.290;6.144;2022-12-20T14:01:22;2.20;;;0.95;;
47431;SDS011;33183;52.290;6.144;2022-12-20T14:03:48;1.00;;;0.90;;
47431;SDS011;33183;52.290;6.144;2022-12-20T14:06:13;1.10;;;0.88;;
47431;SDS011;33183;52.290;6.144;2022-12-20T14:08:41;0.98;;;0.80;;
47431;SDS011;33183;52.290;6.144;2022-12-20T14:13:38;1.00;;;0.80;;
47431;SDS011;33183;52.290;6.144;2022-12-20T14:16:11;1.10;;;0.90;;
47431;SDS011;33183;52.290;6.144;2022-12-20T14:18:39;1.15;;;0.88;;
47431;SDS011;33183;52.290;6.144;2022-12-20T14:21:05;1.70;;;0.90;;
47431;SDS011;33183;52.290;6.144;2022-12-20T14:23:40;1.42;;;0.93;;
47431;SDS011;33183;52.290;6.144;2022-12-20T14:26:12;0.80;;;0.80;;
47431;SDS011;33183;52.290;6.144;2022-12-20T14:28:41;1.88;;;1.10;;
47431;SDS011;33183;52.290;6.144;2022-12-20T14:31:27;0.80;;;0.80;;
47431;SDS011;33183;52.290;6.144;2022-12-20T14:36:50;0.73;;;0.73;;
47431;SDS011;33183;52.290;6.144;2022-12-20T14:39:26;1.08;;;0.80;;
47431;SDS011;33183;52.290;6.144;2022-12-20T14:44:22;0.85;;;0.75;;
47431;SDS011;33183;52.290;6.144;2022-12-20T14:46:49;1.05;;;0.90;;
47431;SDS011;33183;52.290;6.144;2022-12-20T14:49:28;1.33;;;0.70;;
47431;SDS011;33183;52.290;6.144;2022-12-20T14:54:30;1.10;;;0.90;;
47431;SDS011;33183;52.290;6.144;2022-12-20T14:56:56;0.80;;;0.80;;
47431;SDS011;33183;52.290;6.144;2022-12-20T14:59:25;1.13;;;0.98;;
47431;SDS011;33183;52.290;6.144;2022-12-20T15:01:52;1.08;;;0.77;;
47431;SDS011;33183;52.290;6.144;2022-12-20T15:04:22;1.30;;;0.90;;
47431;SDS011;33183;52.290;6.144;2022-12-20T15:06:48;1.00;;;0.90;;
47431;SDS011;33183;52.290;6.144;2022-12-20T15:09:14;0.80;;;0.80;;
47431;SDS011;33183;52.290;6.144;2022-12-20T15:11:40;0.95;;;0.77;;
47431;SDS011;33183;52.290;6.144;2022-12-20T15:17:00;2.45;;;1.00;;
47431;SDS011;33183;52.290;6.144;2022-12-20T15:19:37;2.55;;;0.77;;
47431;SDS011;33183;52.290;6.144;2022-12-20T15:22:03;1.30;;;0.70;;
47431;SDS011;33183;52.290;6.144;2022-12-20T15:24:28;1.40;;;1.10;;
47431;SDS011;33183;52.290;6.144;2022-12-20T15:26:54;0.88;;;0.70;;
47431;SDS011;33183;52.290;6.144;2022-12-20T15:31:46;0.77;;;0.77;;
47431;SDS011;33183;52.290;6.144;2022-12-20T15:34:13;4.97;;;0.90;;
47431;SDS011;33183;52.290;6.144;2022-12-20T15:36:42;1.77;;;1.00;;
47431;SDS011;33183;52.290;6.144;2022-12-20T15:39:08;3.00;;;1.10;;
47431;SDS011;33183;52.290;6.144;2022-12-20T15:41:34;1.58;;;0.85;;
47431;SDS011;33183;52.290;6.144;2022-12-20T15:44:02;2.38;;;1.13;;
47431;SDS011;33183;52.290;6.144;2022-12-20T15:46:29;2.03;;;0.90;;
47431;SDS011;33183;52.290;6.144;2022-12-20T15:48:55;1.33;;;0.80;;
47431;SDS011;33183;52.290;6.144;2022-12-20T15:51:33;1.20;;;0.90;;
47431;SDS011;33183;52.290;6.144;2022-12-20T15:54:01;1.05;;;0.82;;
47431;SDS011;33183;52.290;6.144;2022-12-20T15:56:28;1.88;;;1.00;;
47431;SDS011;33183;52.290;6.144;2022-12-20T15:58:54;0.70;;;0.63;;
47431;SDS011;33183;52.290;6.144;2022-12-20T16:01:26;1.30;;;1.13;;
47431;SDS011;33183;52.290;6.144;2022-12-20T16:03:53;3.70;;;0.93;;
47431;SDS011;33183;52.290;6.144;2022-12-20T16:06:19;2.63;;;1.00;;
47431;SDS011;33183;52.290;6.144;2022-12-20T16:08:44;1.13;;;0.88;;
47431;SDS011;33183;52.290;6.144;2022-12-20T16:11:19;2.00;;;1.13;;
47431;SDS011;33183;52.290;6.144;2022-12-20T16:13:48;1.67;;;0.88;;
47431;SDS011;33183;52.290;6.144;2022-12-20T16:16:18;1.17;;;1.00;;
47431;SDS011;33183;52.290;6.144;2022-12-20T16:18:45;1.17;;;0.80;;
47431;SDS011;33183;52.290;6.144;2022-12-20T16:21:14;0.93;;;0.90;;
47431;SDS011;33183;52.290;6.144;2022-12-20T16:23:41;1.20;;;0.93;;
47431;SDS011;33183;52.290;6.144;2022-12-20T16:26:10;0.95;;;0.70;;
47431;SDS011;33183;52.290;6.144;2022-12-20T16:28:36;1.25;;;0.80;;
47431;SDS011;33183;52.290;6.144;2022-12-20T16:31:08;1.23;;;1.00;;
47431;SDS011;33183;52.290;6.144;2022-12-20T16:33:35;0.90;;;0.70;;
47431;SDS011;33183;52.290;6.144;2022-12-20T16:36:00;1.40;;;1.00;;
47431;SDS011;33183;52.290;6.144;2022-12-20T16:38:25;3.70;;;0.88;;
47431;SDS011;33183;52.290;6.144;2022-12-20T16:40:51;0.93;;;0.80;;
47431;SDS011;33183;52.290;6.144;2022-12-20T16:43:16;0.90;;;0.88;;
47431;SDS011;33183;52.290;6.144;2022-12-20T16:45:42;1.50;;;0.82;;
47431;SDS011;33183;52.290;6.144;2022-12-20T16:48:07;2.05;;;1.10;;
47431;SDS011;33183;52.290;6.144;2022-12-20T16:50:33;33.05;;;1.38;;
47431;SDS011;33183;52.290;6.144;2022-12-20T16:53:05;2.45;;;1.10;;
47431;SDS011;33183;52.290;6.144;2022-12-20T16:55:30;1.08;;;0.90;;
47431;SDS011;33183;52.290;6.144;2022-12-20T16:57:56;37.60;;;20.65;;
47431;SDS011;33183;52.290;6.144;2022-12-20T17:00:23;23.60;;;11.68;;
47431;SDS011;33183;52.290;6.144;2022-12-20T17:02:50;16.92;;;8.48;;
47431;SDS011;33183;52.290;6.144;2022-12-20T17:05:32;16.85;;;8.40;;
47431;SDS011;33183;52.290;6.144;2022-12-20T17:08:00;15.00;;;7.70;;
47431;SDS011;33183;52.290;6.144;2022-12-20T17:10:25;13.65;;;6.90;;